Time;durP1;ratioP1;P1;durP2;ratioP2;P2;SDS_P1;SDS_P2;PMS_P1;PMS_P2;Temp;Humidity;BMP_temperature;BMP_pressure;BME280_temperature;BME280_humidity;BME280_pressure;Samples;Min_cycle;Max_cycle;Signal;HPM_P1;HPM_P2
2022/10/30 00:00:57;;;;;;;9.77;4.53;;;;;;;7.68;nan;-24031.38;5074355;28;20178;-75
2022/10/30 00:03:22;;;;;;;8.30;5.47;;;;;;;7.20;nan;-24017.91;5074063;28;20217;-72
2022/10/30 00:05:50;;;;;;;7.17;4.43;;;;;;;7.50;nan;-24026.56;5073765;28;20540;-73
2022/10/30 00:08:18;;;;;;;10.30;4.30;;;;;;;7.64;nan;-24030.38;5073866;28;20558;-73
2022/10/30 00:10:44;;;;;;;9.97;4.50;;;;;;;7.15;nan;-24016.50;5072500;28;20209;-73
2022/10/30 00:13:10;;;;;;;7.33;3.77;;;;;;;7.25;nan;-24019.47;5073716;28;20232;-73
2022/10/30 00:15:36;;;;;;;8.13;4.40;;;;;;;7.28;nan;-24020.19;5072199;28;20211;-73
2022/10/30 00:18:02;;;;;;;9.27;4.50;;;;;;;7.55;nan;-24027.84;5074012;28;20206;-72
2022/10/30 00:20:28;;;;;;;8.30;4.50;;;;;;;7.39;nan;-24023.31;5073591;28;20194;-72
2022/10/30 00:22:53;;;;;;;6.63;4.13;;;;;;;7.46;nan;-24025.28;5072837;28;20197;-73
2022/10/30 00:25:19;;;;;;;8.13;4.60;;;;;;;7.06;nan;-24014.09;5073452;28;20244;-72
2022/10/30 00:27:44;;;;;;;5.43;3.97;;;;;;;7.34;nan;-24022.03;5073494;28;20518;-73
2022/10/30 00:30:10;;;;;;;6.10;3.93;;;;;;;6.99;nan;-24012.25;5073610;28;20625;-72
2022/10/30 00:32:36;;;;;;;6.70;4.23;;;;;;;7.00;nan;-24012.53;5073976;28;20196;-73
2022/10/30 00:35:01;;;;;;;5.10;3.57;;;;;;;7.37;nan;-24022.72;5073256;28;20181;-73
2022/10/30 00:37:26;;;;;;;6.80;3.60;;;;;;;7.34;nan;-24021.88;5073474;28;20231;-72
2022/10/30 00:39:52;;;;;;;10.43;4.20;;;;;;;6.97;nan;-24011.66;5072255;28;20256;-73
2022/10/30 00:42:17;;;;;;;7.43;3.90;;;;;;;7.07;nan;-24014.38;5073699;28;20178;-72
2022/10/30 00:44:42;;;;;;;10.00;5.07;;;;;;;7.22;nan;-24018.63;5076627;28;20209;-72
2022/10/30 00:47:29;;;;;;;7.70;4.13;;;;;;;7.22;nan;-24018.47;5093120;28;20238;-73
2022/10/30 00:50:09;;;;;;;9.20;4.57;;;;;;;7.38;nan;-24023.00;5092743;28;20202;-73
2022/10/30 00:52:43;;;;;;;7.87;3.10;;;;;;;7.26;nan;-24019.75;5092541;28;20181;-73
2022/10/30 00:55:13;;;;;;;7.07;4.23;;;;;;;6.88;nan;-24009.13;5092423;28;20158;-73
2022/10/30 00:57:38;;;;;;;6.30;4.20;;;;;;;6.88;nan;-24009.13;5092214;28;20549;-72
2022/10/30 01:00:06;;;;;;;10.00;3.27;;;;;;;6.84;nan;-24007.84;5092527;28;20180;-73
2022/10/30 01:02:32;;;;;;;5.67;2.80;;;;;;;7.15;nan;-24016.50;5092958;28;20632;-73
2022/10/30 01:04:58;;;;;;;4.57;3.43;;;;;;;6.90;nan;-24009.53;5092684;28;20173;-73
2022/10/30 01:07:24;;;;;;;5.03;3.13;;;;;;;7.08;nan;-24014.66;5092570;28;20158;-72
2022/10/30 01:09:49;;;;;;;8.43;3.27;;;;;;;7.20;nan;-24017.91;5092240;28;20515;-71
2022/10/30 01:12:15;;;;;;;5.07;3.03;;;;;;;6.81;nan;-24007.13;5091910;28;20166;-72
2022/10/30 01:14:46;;;;;;;5.43;3.17;;;;;;;7.20;nan;-24017.91;5092464;28;20699;-72
2022/10/30 01:17:33;;;;;;;7.30;3.80;;;;;;;7.22;nan;-24018.63;5091060;28;20692;-72
2022/10/30 01:20:16;;;;;;;8.50;4.63;;;;;;;7.13;nan;-24016.06;5092616;28;20166;-72
2022/10/30 01:23:10;;;;;;;3.87;2.97;;;;;;;7.09;nan;-24015.06;5092131;28;20239;-72
2022/10/30 01:25:56;;;;;;;5.67;3.00;;;;;;;6.81;nan;-24007.13;5092060;28;20217;-72
2022/10/30 01:28:49;;;;;;;6.90;3.53;;;;;;;7.08;nan;-24014.78;5092192;28;20170;-73
2022/10/30 01:31:36;;;;;;;4.00;2.73;;;;;;;6.66;nan;-24002.88;5094435;28;20198;-72
2022/10/30 01:34:17;;;;;;;4.10;2.73;;;;;;;6.88;nan;-24008.97;5093080;28;20169;-72
2022/10/30 01:36:50;;;;;;;5.53;3.00;;;;;;;7.01;nan;-24012.66;5092381;28;20535;-73
2022/10/30 01:39:26;;;;;;;4.97;3.07;;;;;;;7.12;nan;-24015.66;5092468;28;20196;-73
2022/10/30 01:41:53;;;;;;;3.10;2.73;;;;;;;6.89;nan;-24009.25;5092329;28;20164;-73
2022/10/30 01:44:24;;;;;;;4.70;3.13;;;;;;;6.95;nan;-24010.97;5092786;28;20238;-72
2022/10/30 01:47:14;;;;;;;4.73;3.07;;;;;;;7.07;nan;-24014.50;5092612;28;20169;-73
2022/10/30 01:50:05;;;;;;;5.00;3.13;;;;;;;7.00;nan;-24012.53;5077838;28;20188;-73
2022/10/30 01:52:48;;;;;;;3.73;2.87;;;;;;;6.86;nan;-24008.41;5071058;28;20269;-73
2022/10/30 01:55:41;;;;;;;6.40;3.37;;;;;;;6.93;nan;-24010.41;5072268;28;20169;-73
2022/10/30 01:58:33;;;;;;;7.07;3.70;;;;;;;6.86;nan;-24008.41;5071868;28;20166;-73
2022/10/30 02:00:59;;;;;;;4.20;3.07;;;;;;;6.61;nan;-24001.59;5065065;28;20197;-72
2022/10/30 02:03:26;;;;;;;5.50;3.20;;;;;;;6.55;nan;-23999.91;5072045;28;20174;-73
2022/10/30 02:05:52;;;;;;;5.03;3.47;;;;;;;6.33;nan;-23993.50;5072213;28;20178;-73
2022/10/30 02:08:19;;;;;;;5.03;3.50;;;;;;;6.24;nan;-23991.09;5072010;28;20180;-73
2022/10/30 02:10:47;;;;;;;15.23;3.20;;;;;;;6.67;nan;-24003.16;5071542;28;20540;-73
2022/10/30 02:13:12;;;;;;;11.47;4.03;;;;;;;6.67;nan;-24003.16;5071634;28;20178;-73
2022/10/30 02:15:38;;;;;;;6.87;3.97;;;;;;;6.51;nan;-23998.75;5071594;28;20679;-73
2022/10/30 02:18:04;;;;;;;7.17;3.43;;;;;;;6.41;nan;-23995.78;5071820;28;20181;-73
2022/10/30 02:20:31;;;;;;;7.07;3.53;;;;;;;6.43;nan;-23996.34;5071433;28;20193;-73
2022/10/30 02:22:56;;;;;;;4.53;3.13;;;;;;;6.50;nan;-23998.34;5071345;28;20174;-73
2022/10/30 02:25:21;;;;;;;4.70;3.07;;;;;;;6.34;nan;-23993.78;5071100;28;20758;-73
2022/10/30 02:27:47;;;;;;;4.73;3.10;;;;;;;6.10;nan;-23987.13;5071458;28;20180;-73
2022/10/30 02:30:12;;;;;;;3.97;3.23;;;;;;;6.29;nan;-23992.38;5071246;28;20289;-72
2022/10/30 02:32:38;;;;;;;5.17;2.70;;;;;;;6.04;nan;-23985.41;5071743;28;20178;-72
2022/10/30 02:35:04;;;;;;;7.70;3.67;;;;;;;6.07;nan;-23986.41;5071359;28;20682;-73
2022/10/30 02:37:31;;;;;;;10.43;3.90;;;;;;;6.40;nan;-23995.63;5071408;28;20177;-71
2022/10/30 02:39:57;;;;;;;7.87;3.50;;;;;;;6.39;nan;-23995.34;5071092;28;20174;-72
2022/10/30 02:42:22;;;;;;;8.00;4.00;;;;;;;6.32;nan;-23993.38;5071261;28;20178;-73
2022/10/30 02:44:48;;;;;;;6.53;2.90;;;;;;;6.42;nan;-23996.22;5071304;28;20690;-73
2022/10/30 02:47:14;;;;;;;8.33;4.00;;;;;;;6.37;nan;-23994.78;5071326;28;20176;-73
2022/10/30 02:49:39;;;;;;;6.90;2.87;;;;;;;6.18;nan;-23989.53;5071290;28;20162;-73
2022/10/30 02:52:06;;;;;;;4.13;3.43;;;;;;;6.59;nan;-24001.03;5069743;28;20240;-73
2022/10/30 02:54:32;;;;;;;4.17;2.80;;;;;;;6.45;nan;-23996.91;5071078;28;20161;-73
2022/10/30 02:56:58;;;;;;;11.07;3.13;;;;;;;6.43;nan;-23996.34;5071729;28;20174;-73
2022/10/30 02:59:23;;;;;;;4.10;3.00;;;;;;;6.02;nan;-23984.97;5071237;28;20182;-73
2022/10/30 03:01:48;;;;;;;4.93;3.50;;;;;;;6.30;nan;-23992.78;5071422;28;20196;-73
2022/10/30 03:04:14;;;;;;;4.03;3.27;;;;;;;6.19;nan;-23989.81;5074216;28;20219;-73
2022/10/30 03:06:39;;;;;;;5.97;3.57;;;;;;;6.13;nan;-23987.97;5074961;28;20182;-73
2022/10/30 03:09:04;;;;;;;5.90;3.50;;;;;;;6.26;nan;-23991.53;5075629;28;20231;-73
2022/10/30 03:11:33;;;;;;;3.47;2.90;;;;;;;6.14;nan;-23988.41;5074602;28;20209;-73
2022/10/30 03:13:58;;;;;;;5.17;3.30;;;;;;;5.85;nan;-23980.00;5074816;28;20174;-73
2022/10/30 03:16:28;;;;;;;4.90;3.33;;;;;;;3.99;nan;-23927.94;5074924;28;20227;-73
2022/10/30 03:18:54;;;;;;;6.53;3.10;;;;;;;6.23;nan;-23990.81;5075038;28;20589;-73
2022/10/30 03:21:22;;;;;;;8.10;3.67;;;;;;;5.88;nan;-23981.00;5074600;28;20201;-73
2022/10/30 03:23:49;;;;;;;12.83;3.97;;;;;;;5.98;nan;-23983.84;5074123;28;20178;-73
2022/10/30 03:26:15;;;;;;;7.50;3.53;;;;;;;5.94;nan;-23982.72;5074195;28;20265;-72
2022/10/30 03:28:40;;;;;;;9.03;3.90;;;;;;;5.93;nan;-23982.44;5074850;28;20174;-73
2022/10/30 03:31:09;;;;;;;5.67;3.60;;;;;;;5.98;nan;-23983.84;5074050;28;20205;-73
2022/10/30 03:33:35;;;;;;;6.20;4.17;;;;;;;5.87;nan;-23980.72;5074925;28;20177;-73
2022/10/30 03:36:01;;;;;;;4.13;3.43;;;;;;;5.68;nan;-23975.47;5074549;28;20252;-73
2022/10/30 03:38:27;;;;;;;6.93;3.97;;;;;;;5.22;nan;-23962.53;5074009;28;20170;-73
2022/10/30 03:40:53;;;;;;;6.00;3.67;;;;;;;5.58;nan;-23972.47;5073969;28;20562;-73
2022/10/30 03:43:18;;;;;;;9.67;3.33;;;;;;;5.78;nan;-23978.16;5074109;28;20235;-73
2022/10/30 03:45:48;;;;;;;6.40;3.27;;;;;;;5.28;nan;-23964.09;5074079;28;20170;-73
2022/10/30 03:48:14;;;;;;;4.77;4.03;;;;;;;5.18;nan;-23961.25;5072722;28;20219;-73
2022/10/30 03:50:40;;;;;;;4.80;3.17;;;;;;;5.27;nan;-23963.94;5074062;28;20217;-73
2022/10/30 03:53:05;;;;;;;4.57;2.83;;;;;;;5.50;nan;-23970.22;5073709;28;20209;-72
2022/10/30 03:55:31;;;;;;;3.77;3.07;;;;;;;5.84;nan;-23979.72;5074287;28;20265;-72
2022/10/30 03:57:56;;;;;;;16.40;2.97;;;;;;;5.22;nan;-23962.53;5073743;28;20200;-73
2022/10/30 04:00:22;;;;;;;5.53;3.53;;;;;;;5.58;nan;-23972.63;5073927;28;20182;-72
2022/10/30 04:02:48;;;;;;;4.80;3.57;;;;;;;5.57;nan;-23972.19;5073130;28;20174;-74
2022/10/30 04:05:16;;;;;;;5.70;3.37;;;;;;;5.49;nan;-23970.06;5073948;28;20768;-72
2022/10/30 04:07:41;;;;;;;5.53;3.70;;;;;;;5.38;nan;-23966.78;5085519;28;20189;-73
2022/10/30 04:10:07;;;;;;;8.13;3.40;;;;;;;5.66;nan;-23974.75;5092454;28;20284;-72
2022/10/30 04:12:32;;;;;;;5.80;3.47;;;;;;;5.36;nan;-23966.38;5092119;28;20181;-71
2022/10/30 04:14:58;;;;;;;4.53;3.00;;;;;;;5.28;nan;-23964.09;5092884;28;20192;-73
2022/10/30 04:17:23;;;;;;;6.27;3.67;;;;;;;5.30;nan;-23964.66;5085712;28;20183;-71
2022/10/30 04:19:49;;;;;;;3.83;2.83;;;;;;;5.59;nan;-23972.75;5092520;28;20191;-73
2022/10/30 04:22:14;;;;;;;5.70;3.07;;;;;;;5.71;nan;-23976.31;5084448;28;20268;-73
2022/10/30 04:24:40;;;;;;;6.33;4.10;;;;;;;5.42;nan;-23968.06;5084267;28;20174;-72
2022/10/30 04:27:05;;;;;;;3.37;2.87;;;;;;;4.97;nan;-23955.28;5092267;28;20179;-73
2022/10/30 04:29:31;;;;;;;8.30;2.70;;;;;;;5.32;nan;-23965.38;5090297;28;20185;-72
2022/10/30 04:31:56;;;;;;;4.10;2.87;;;;;;;5.23;nan;-23962.81;5091770;28;20212;-73
2022/10/30 04:34:22;;;;;;;7.20;3.47;;;;;;;5.56;nan;-23971.91;5091553;28;20192;-73
2022/10/30 04:36:47;;;;;;;4.83;3.47;;;;;;;5.33;nan;-23965.66;5090770;28;20188;-73
2022/10/30 04:39:13;;;;;;;6.43;3.37;;;;;;;5.31;nan;-23964.94;5091286;28;20250;-73
2022/10/30 04:41:38;;;;;;;7.90;2.93;;;;;;;5.58;nan;-23972.47;5092186;28;20279;-73
2022/10/30 04:44:04;;;;;;;4.70;3.47;;;;;;;5.69;nan;-23975.59;5078909;28;20601;-73
2022/10/30 04:46:30;;;;;;;5.73;3.30;;;;;;;5.68;nan;-23975.31;5089490;28;20256;-72
2022/10/30 04:48:56;;;;;;;3.73;2.70;;;;;;;5.46;nan;-23969.06;5090379;28;20177;-71
2022/10/30 04:51:22;;;;;;;3.27;2.67;;;;;;;5.52;nan;-23970.78;5072725;28;20317;-73
2022/10/30 04:53:48;;;;;;;6.90;3.20;;;;;;;5.49;nan;-23970.06;5073011;28;20196;-72
2022/10/30 04:56:13;;;;;;;4.00;3.10;;;;;;;5.56;nan;-23971.91;5073014;28;20265;-73
2022/10/30 04:58:40;;;;;;;3.83;2.77;;;;;;;5.48;nan;-23969.78;5073861;28;20181;-73
2022/10/30 05:01:06;;;;;;;5.47;2.70;;;;;;;5.61;nan;-23973.47;5085351;28;20217;-73
2022/10/30 05:03:32;;;;;;;9.57;3.73;;;;;;;5.36;nan;-23966.22;5080145;28;20177;-72
2022/10/30 05:06:04;;;;;;;3.07;2.60;;;;;;;5.47;nan;-23969.50;5090473;28;20177;-72
2022/10/30 05:08:30;;;;;;;3.40;2.53;;;;;;;5.83;nan;-23979.59;5083623;28;20181;-72
2022/10/30 05:10:55;;;;;;;4.47;2.70;;;;;;;5.66;nan;-23974.75;5085132;28;20609;-73
2022/10/30 05:13:21;;;;;;;3.93;2.67;;;;;;;5.47;nan;-23969.34;5084086;28;20568;-72
2022/10/30 05:15:47;;;;;;;6.87;3.73;;;;;;;5.75;nan;-23977.44;5091602;28;20639;-73
2022/10/30 05:18:12;;;;;;;4.43;2.60;;;;;;;5.90;nan;-23981.56;5091975;28;20607;-73
2022/10/30 05:20:38;;;;;;;4.40;2.63;;;;;;;6.10;nan;-23987.13;5089561;28;20264;-73
2022/10/30 05:23:03;;;;;;;2.53;2.30;;;;;;;5.94;nan;-23982.72;5091729;28;20191;-73
2022/10/30 05:25:29;;;;;;;6.20;2.80;;;;;;;6.20;nan;-23989.97;5075125;28;20221;-73
2022/10/30 05:28:02;;;;;;;4.80;3.33;;;;;;;5.24;nan;-23962.94;5090583;28;20286;-72
2022/10/30 05:30:30;;;;;;;4.17;3.03;;;;;;;6.35;nan;-23994.22;5092568;28;20185;-72
2022/10/30 05:33:06;;;;;;;7.50;3.60;;;;;;;6.45;nan;-23996.91;5091479;28;20170;-73
2022/10/30 05:35:33;;;;;;;4.37;3.03;;;;;;;6.54;nan;-23999.63;5091975;28;20177;-73
2022/10/30 05:38:00;;;;;;;4.73;2.90;;;;;;;6.59;nan;-24000.88;5089392;28;20575;-74
2022/10/30 05:40:26;;;;;;;2.70;2.50;;;;;;;6.48;nan;-23997.75;5090423;28;20644;-72
2022/10/30 05:42:52;;;;;;;4.20;2.63;;;;;;;6.71;nan;-24004.16;5087312;28;20243;-72
2022/10/30 05:45:18;;;;;;;5.73;3.43;;;;;;;6.60;nan;-24001.19;5086340;28;20260;-73
2022/10/30 05:47:52;;;;;;;3.90;2.83;;;;;;;6.46;nan;-23997.19;5091103;28;20193;-74
2022/10/30 05:50:17;;;;;;;4.47;3.03;;;;;;;6.93;nan;-24010.53;5091523;28;20197;-73
2022/10/30 05:52:43;;;;;;;6.97;3.07;;;;;;;7.09;nan;-24015.06;5090393;28;20266;-74
2022/10/30 05:55:08;;;;;;;7.27;3.30;;;;;;;6.98;nan;-24011.81;5091027;28;20268;-72
2022/10/30 05:57:34;;;;;;;4.50;2.90;;;;;;;6.76;nan;-24005.72;5089565;28;20192;-71
2022/10/30 05:59:59;;;;;;;3.93;2.63;;;;;;;6.82;nan;-24007.41;5089544;28;20188;-72
2022/10/30 06:02:25;;;;;;;4.50;3.10;;;;;;;6.77;nan;-24006.00;5088145;28;20177;-73
2022/10/30 06:04:50;;;;;;;3.80;2.97;;;;;;;7.52;nan;-24026.97;5090022;28;20177;-72
2022/10/30 06:07:15;;;;;;;4.67;3.03;;;;;;;7.68;nan;-24031.38;5090349;28;20177;-72
2022/10/30 06:09:41;;;;;;;5.77;2.97;;;;;;;7.90;nan;-24037.75;5088803;28;20177;-72
2022/10/30 06:12:06;;;;;;;3.27;2.77;;;;;;;7.89;nan;-24037.31;5076198;28;20205;-73
2022/10/30 06:14:32;;;;;;;3.13;2.53;;;;;;;7.73;nan;-24032.78;5092279;28;20219;-73
2022/10/30 06:16:57;;;;;;;6.60;4.07;;;;;;;8.38;nan;-24051.06;5081306;28;20618;-72
2022/10/30 06:19:22;;;;;;;3.10;2.77;;;;;;;8.55;nan;-24055.75;5071417;28;20239;-72
2022/10/30 06:21:48;;;;;;;5.27;2.73;;;;;;;8.22;nan;-24046.69;5082683;28;20503;-74
2022/10/30 06:24:14;;;;;;;5.87;3.07;;;;;;;8.77;nan;-24062.09;5089408;28;20193;-70
2022/10/30 06:26:40;;;;;;;9.67;3.50;;;;;;;8.55;nan;-24055.88;5089571;28;20221;-72
2022/10/30 06:29:05;;;;;;;2.83;2.53;;;;;;;9.01;nan;-24068.75;5070149;28;20224;-71
2022/10/30 06:31:30;;;;;;;6.83;3.40;;;;;;;9.30;nan;-24076.94;5071172;28;20240;-70
2022/10/30 06:33:56;;;;;;;6.70;3.47;;;;;;;9.14;nan;-24072.44;5071061;28;20228;-71
2022/10/30 06:36:21;;;;;;;3.90;2.83;;;;;;;9.38;nan;-24078.94;5071176;28;20169;-72
2022/10/30 06:38:47;;;;;;;6.03;3.30;;;;;;;9.44;nan;-24080.78;5092719;28;20185;-72
2022/10/30 06:41:12;;;;;;;5.07;3.27;;;;;;;9.95;nan;-24094.91;5094893;28;20261;-72
2022/10/30 06:43:38;;;;;;;4.87;3.13;;;;;;;9.95;nan;-24095.03;5093196;28;20260;-72
2022/10/30 06:46:03;;;;;;;4.47;2.67;;;;;;;10.27;nan;-24103.94;5080073;28;20192;-72
2022/10/30 06:48:29;;;;;;;8.27;2.87;;;;;;;10.50;nan;-24110.44;5094280;28;20181;-71
2022/10/30 06:50:55;;;;;;;3.90;2.70;;;;;;;10.62;nan;-24113.69;5095260;28;20767;-72
2022/10/30 06:53:21;;;;;;;4.72;3.42;;;;;;;10.42;nan;-24108.16;5094495;28;20559;-72
2022/10/30 06:55:58;;;;;;;3.97;2.70;;;;;;;10.61;nan;-24113.41;5094232;28;20593;-75
2022/10/30 06:58:23;;;;;;;5.13;3.05;;;;;;;7.45;nan;-24025.00;5091303;28;20356;-74
2022/10/30 07:00:49;;;;;;;5.35;3.03;;;;;;;11.39;nan;-24135.09;5077558;28;20657;-75
2022/10/30 07:03:15;;;;;;;4.72;3.03;;;;;;;11.62;nan;-24141.59;5095149;28;20546;-75
2022/10/30 07:05:41;;;;;;;5.80;3.60;;;;;;;11.67;nan;-24142.84;5088687;28;20197;-72
2022/10/30 07:08:06;;;;;;;4.93;3.10;;;;;;;11.73;nan;-24144.56;5074758;28;20162;-71
2022/10/30 07:10:32;;;;;;;6.72;2.95;;;;;;;12.07;nan;-24154.13;5074724;28;20205;-71
2022/10/30 07:12:57;;;;;;;4.88;3.22;;;;;;;12.34;nan;-24161.72;5091143;28;20186;-73
2022/10/30 07:15:23;;;;;;;5.03;3.70;;;;;;;12.24;nan;-24158.91;5079175;28;20812;-70
2022/10/30 07:17:55;;;;;;;9.05;3.50;;;;;;;12.33;nan;-24161.44;5093957;28;20177;-72
2022/10/30 07:20:21;;;;;;;4.72;3.13;;;;;;;10.39;nan;-24107.19;5083329;28;20189;-71
2022/10/30 07:22:47;;;;;;;8.23;3.53;;;;;;;12.33;nan;-24161.44;5083840;28;20173;-73
2022/10/30 07:25:12;;;;;;;5.22;3.03;;;;;;;12.50;nan;-24166.09;5094895;28;20255;-72
2022/10/30 07:27:46;;;;;;;5.53;3.13;;;;;;;12.57;nan;-24168.06;5080023;28;20565;-72
2022/10/30 07:30:13;;;;;;;6.57;3.42;;;;;;;12.74;nan;-24172.69;5093162;28;20181;-72
2022/10/30 07:32:38;;;;;;;5.45;3.50;;;;;;;13.12;nan;-24183.25;5093789;28;20238;-71
2022/10/30 07:35:05;;;;;;;6.47;3.05;;;;;;;13.58;nan;-24196.03;5091345;28;20190;-72
2022/10/30 07:37:30;;;;;;;6.80;3.78;;;;;;;13.82;nan;-24202.63;5072974;28;20181;-72
2022/10/30 07:39:56;;;;;;;5.47;3.75;;;;;;;13.71;nan;-24199.69;5089602;28;20185;-71
2022/10/30 07:42:21;;;;;;;5.45;3.33;;;;;;;13.98;nan;-24207.25;5089017;28;20220;-70
2022/10/30 07:44:47;;;;;;;6.20;3.50;;;;;;;13.74;nan;-24200.53;5091958;28;20234;-70
2022/10/30 07:47:12;;;;;;;4.85;2.88;;;;;;;13.96;nan;-24206.56;5088697;28;20192;-71
2022/10/30 07:49:38;;;;;;;5.32;3.30;;;;;;;14.47;nan;-24220.88;5090739;28;20185;-71
2022/10/30 07:52:03;;;;;;;4.72;3.20;;;;;;;14.58;nan;-24223.81;5089738;28;20217;-71
2022/10/30 07:54:29;;;;;;;4.30;3.00;;;;;;;14.48;nan;-24221.16;5080455;28;20181;-71
2022/10/30 07:56:54;;;;;;;4.53;2.80;;;;;;;14.73;nan;-24227.88;5094410;28;20175;-71
2022/10/30 07:59:19;;;;;;;5.05;3.10;;;;;;;15.08;nan;-24237.69;5080880;28;20315;-71
2022/10/30 08:01:45;;;;;;;5.90;3.47;;;;;;;15.27;nan;-24243.00;5075949;28;20653;-72
2022/10/30 08:04:12;;;;;;;4.43;3.00;;;;;;;15.37;nan;-24245.81;5092782;28;20317;-72
2022/10/30 08:06:38;;;;;;;6.55;2.80;;;;;;;15.31;nan;-24244.00;5093634;28;20277;-75
2022/10/30 08:09:04;;;;;;;5.55;3.35;;;;;;;15.76;nan;-24256.47;5074057;28;20668;-72
2022/10/30 08:11:29;;;;;;;3.45;2.60;;;;;;;15.95;nan;-24261.78;5087584;28;20201;-72
2022/10/30 08:13:55;;;;;;;4.88;2.97;;;;;;;15.91;nan;-24260.78;5087812;28;20619;-72
2022/10/30 08:16:20;;;;;;;4.13;2.60;;;;;;;15.90;nan;-24260.38;5092514;28;20604;-71
2022/10/30 08:18:45;;;;;;;4.75;2.58;;;;;;;16.33;nan;-24272.41;5075581;28;20217;-72
2022/10/30 08:21:11;;;;;;;3.67;2.35;;;;;;;16.48;nan;-24276.44;5091302;28;20547;-72
2022/10/30 08:23:36;;;;;;;2.67;2.33;;;;;;;16.90;nan;-24288.06;5093199;28;20689;-72
2022/10/30 08:26:02;;;;;;;4.72;2.50;;;;;;;16.87;nan;-24287.06;5079596;28;20225;-72
2022/10/30 08:28:27;;;;;;;4.57;2.67;;;;;;;16.82;nan;-24285.81;5082883;28;20223;-73
2022/10/30 08:30:53;;;;;;;3.63;2.70;;;;;;;17.62;nan;-24307.88;5083980;28;20201;-72
2022/10/30 08:33:19;;;;;;;3.03;2.30;;;;;;;17.52;nan;-24305.09;5093170;28;20189;-72
2022/10/30 08:35:52;;;;;;;4.82;2.28;;;;;;;17.72;nan;-24310.66;5076441;28;20629;-72
2022/10/30 08:38:18;;;;;;;3.50;2.35;;;;;;;17.95;nan;-24316.94;5072215;28;20219;-72
2022/10/30 08:40:44;;;;;;;7.63;3.30;;;;;;;17.89;nan;-24315.41;5072693;28;20261;-73
2022/10/30 08:43:10;;;;;;;5.47;3.05;;;;;;;18.14;nan;-24322.09;5072784;28;20177;-72
2022/10/30 08:45:35;;;;;;;4.25;2.38;;;;;;;17.93;nan;-24316.38;5072706;28;20170;-72
2022/10/30 08:48:03;;;;;;;4.82;2.78;;;;;;;18.36;nan;-24328.38;5072400;28;20256;-74
2022/10/30 08:50:30;;;;;;;4.10;2.60;;;;;;;18.41;nan;-24329.63;5078163;28;20342;-72
2022/10/30 08:52:58;;;;;;;6.53;2.95;;;;;;;18.09;nan;-24320.84;5091361;28;20176;-73
2022/10/30 08:55:24;;;;;;;5.28;2.60;;;;;;;18.49;nan;-24332.00;5092785;28;20177;-73
2022/10/30 08:57:49;;;;;;;5.07;3.28;;;;;;;18.44;nan;-24330.59;5084060;28;20182;-73
2022/10/30 09:00:15;;;;;;;3.95;2.60;;;;;;;18.46;nan;-24331.16;5071898;28;20166;-73
2022/10/30 09:02:40;;;;;;;6.47;2.72;;;;;;;18.82;nan;-24340.91;5072327;28;20177;-72
2022/10/30 09:05:07;;;;;;;5.35;3.00;;;;;;;18.72;nan;-24338.25;5076320;28;20280;-72
2022/10/30 09:07:33;;;;;;;3.33;2.40;;;;;;;18.85;nan;-24341.75;5084412;28;20170;-71
2022/10/30 09:09:59;;;;;;;2.63;2.17;;;;;;;18.88;nan;-24342.72;5083834;28;20253;-73
2022/10/30 09:12:24;;;;;;;4.32;2.80;;;;;;;19.00;nan;-24345.91;5084145;28;20193;-72
2022/10/30 09:14:50;;;;;;;3.70;2.22;;;;;;;19.66;nan;-24364.16;5089150;28;20177;-72
2022/10/30 09:17:15;;;;;;;3.15;2.50;;;;;;;19.45;nan;-24358.31;5076538;28;20242;-72
2022/10/30 09:19:41;;;;;;;3.92;2.47;;;;;;;19.42;nan;-24357.47;5092312;28;20514;-73
2022/10/30 09:22:06;;;;;;;4.85;2.65;;;;;;;19.74;nan;-24366.38;5091266;28;20217;-71
2022/10/30 09:24:32;;;;;;;2.40;1.80;;;;;;;19.79;nan;-24367.63;5091221;28;20239;-72
2022/10/30 09:26:57;;;;;;;3.78;2.40;;;;;;;20.44;nan;-24385.53;5091126;28;20225;-71
2022/10/30 09:29:23;;;;;;;4.47;2.60;;;;;;;20.36;nan;-24383.31;5091305;28;20326;-72
2022/10/30 09:31:48;;;;;;;3.03;2.25;;;;;;;20.35;nan;-24382.91;5091999;28;20201;-71
2022/10/30 09:34:14;;;;;;;3.67;2.40;;;;;;;20.49;nan;-24386.94;5090706;28;20181;-74
2022/10/30 09:36:42;;;;;;;3.50;2.13;;;;;;;20.56;nan;-24388.75;5091745;28;20181;-73
2022/10/30 09:39:08;;;;;;;8.32;4.13;;;;;;;19.94;nan;-24371.66;5080808;28;20182;-72
2022/10/30 09:41:43;;;;;;;6.18;2.30;;;;;;;21.14;nan;-24404.69;5070856;28;20602;-71
2022/10/30 09:44:43;;;;;;;4.47;2.30;;;;;;;21.07;nan;-24402.75;5087684;28;20177;-73
2022/10/30 09:47:52;;;;;;;2.88;2.05;;;;;;;21.18;nan;-24405.81;5086637;28;20186;-73
2022/10/30 09:50:35;;;;;;;5.60;2.90;;;;;;;21.43;nan;-24412.59;5019371;28;20193;-70
2022/10/30 09:53:37;;;;;;;6.75;3.05;;;;;;;21.49;nan;-24414.41;5090853;28;20193;-72
2022/10/30 09:56:29;;;;;;;6.35;3.15;;;;;;;21.57;nan;-24416.47;5075553;28;20204;-71
2022/10/30 09:59:03;;;;;;;6.15;3.17;;;;;;;21.28;nan;-24408.44;5065137;28;20671;-72
2022/10/30 10:01:46;;;;;;;6.93;3.83;;;;;;;21.65;nan;-24418.56;5083507;28;20181;-72
2022/10/30 10:04:38;;;;;;;8.65;4.32;;;;;;;21.69;nan;-24419.78;5091914;28;20251;-73
2022/10/30 10:07:24;;;;;;;11.02;4.93;;;;;;;21.74;nan;-24421.19;5091021;28;20188;-72
2022/10/30 10:09:57;;;;;;;6.78;4.10;;;;;;;21.72;nan;-24420.63;5090072;28;20181;-74
2022/10/30 10:12:28;;;;;;;7.35;4.88;;;;;;;21.91;nan;-24425.91;5090286;28;20204;-71
2022/10/30 10:14:55;;;;;;;6.68;3.67;;;;;;;22.27;nan;-24435.59;5081278;28;20653;-71
2022/10/30 10:17:29;;;;;;;6.82;4.18;;;;;;;20.01;nan;-24373.72;5085118;28;20241;-71
2022/10/30 10:19:58;;;;;;;9.45;4.55;;;;;;;22.27;nan;-24435.72;5090102;28;20544;-72
2022/10/30 10:22:40;;;;;;;7.30;4.47;;;;;;;22.24;nan;-24434.75;5090359;28;20301;-74
2022/10/30 10:25:11;;;;;;;6.30;3.85;;;;;;;22.00;nan;-24428.25;5081213;28;20653;-73
2022/10/30 10:28:05;;;;;;;8.40;3.83;;;;;;;22.50;nan;-24441.94;5081042;28;20170;-71
2022/10/30 10:30:59;;;;;;;12.10;4.85;;;;;;;22.69;nan;-24447.19;5089705;28;20200;-71
2022/10/30 10:33:45;;;;;;;8.93;4.88;;;;;;;22.75;nan;-24448.72;5077774;28;20205;-71
2022/10/30 10:36:40;;;;;;;7.85;4.68;;;;;;;22.77;nan;-24449.41;5085767;28;20190;-71
2022/10/30 10:39:20;;;;;;;9.23;4.72;;;;;;;22.97;nan;-24454.66;5072312;28;20196;-71
2022/10/30 10:42:05;;;;;;;10.27;5.25;;;;;;;22.85;nan;-24451.63;5087511;28;20177;-72
2022/10/30 10:44:53;;;;;;;12.88;5.95;;;;;;;22.91;nan;-24453.16;5090298;28;20636;-71
2022/10/30 10:47:40;;;;;;;10.43;5.60;;;;;;;23.07;nan;-24457.56;5074416;28;20170;-72
2022/10/30 10:50:14;;;;;;;7.50;4.75;;;;;;;23.18;nan;-24460.63;5090142;28;20201;-72
2022/10/30 10:52:45;;;;;;;9.05;4.25;;;;;;;23.09;nan;-24458.00;5089008;28;20196;-72
2022/10/30 10:55:21;;;;;;;6.15;4.03;;;;;;;23.38;nan;-24466.00;5088506;28;20691;-72
2022/10/30 10:57:47;;;;;;;5.90;3.85;;;;;;;22.37;nan;-24438.34;5089425;28;20188;-71
2022/10/30 11:00:19;;;;;;;5.32;3.13;;;;;;;23.40;nan;-24466.56;5089480;28;20193;-72
2022/10/30 11:03:16;;;;;;;5.40;2.33;;;;;;;23.69;nan;-24474.44;5084040;28;20189;-72
2022/10/30 11:05:57;;;;;;;3.63;2.60;;;;;;;23.72;nan;-24475.38;5084645;28;20197;-72
2022/10/30 11:08:29;;;;;;;3.00;2.15;;;;;;;23.92;nan;-24480.63;5086015;28;20177;-72
2022/10/30 11:11:02;;;;;;;3.35;2.13;;;;;;;23.93;nan;-24480.91;5087880;28;20215;-72
2022/10/30 11:13:35;;;;;;;3.08;1.80;;;;;;;24.04;nan;-24483.94;5084177;28;20567;-72
2022/10/30 11:16:18;;;;;;;2.30;1.50;;;;;;;24.12;nan;-24486.28;5089340;28;20208;-71
2022/10/30 11:18:46;;;;;;;2.33;1.63;;;;;;;24.11;nan;-24486.00;5089673;28;20238;-72
2022/10/30 11:21:20;;;;;;;1.63;1.45;;;;;;;24.16;nan;-24487.25;5072942;28;20637;-73
2022/10/30 11:23:48;;;;;;;2.38;1.60;;;;;;;24.12;nan;-24486.28;5090167;28;20180;-71
2022/10/30 11:26:16;;;;;;;2.38;1.75;;;;;;;24.26;nan;-24489.88;5090976;28;20228;-71
2022/10/30 11:28:48;;;;;;;2.50;1.65;;;;;;;24.40;nan;-24493.75;5092764;28;20181;-71
2022/10/30 11:31:16;;;;;;;3.13;2.00;;;;;;;24.37;nan;-24492.91;5076842;28;20760;-72
2022/10/30 11:33:42;;;;;;;2.30;1.60;;;;;;;24.07;nan;-24484.78;5093595;28;20174;-72
2022/10/30 11:36:08;;;;;;;2.95;1.70;;;;;;;24.40;nan;-24493.88;5094346;28;20519;-72
2022/10/30 11:38:33;;;;;;;2.15;1.50;;;;;;;24.25;nan;-24489.59;5086817;28;20192;-72
2022/10/30 11:41:01;;;;;;;2.38;1.73;;;;;;;24.57;nan;-24498.41;5082988;28;20190;-73
2022/10/30 11:43:27;;;;;;;3.05;2.00;;;;;;;24.02;nan;-24483.53;5086052;28;20600;-71
2022/10/30 11:45:53;;;;;;;2.45;1.70;;;;;;;24.76;nan;-24503.53;5093643;28;20174;-72
2022/10/30 11:48:28;;;;;;;2.05;1.48;;;;;;;24.39;nan;-24493.59;5076928;28;20174;-71
2022/10/30 11:50:58;;;;;;;1.95;1.50;;;;;;;24.62;nan;-24499.94;5073522;28;20197;-71
2022/10/30 11:53:37;;;;;;;2.00;1.40;;;;;;;24.96;nan;-24509.19;5087174;28;20177;-71
2022/10/30 11:56:12;;;;;;;1.73;1.20;;;;;;;24.64;nan;-24500.34;5076087;28;20185;-71